createdAt,value
2019-04-29T00:02:23.131Z,18.53
2019-04-29T00:04:52.426Z,19.83
2019-04-29T00:07:21.735Z,18.47
2019-04-29T00:09:51.014Z,19.50
2019-04-29T00:12:20.555Z,19.67
2019-04-29T00:14:57.380Z,19.13
2019-04-29T00:17:31.143Z,20.53
2019-04-29T00:20:08.581Z,18.37
2019-04-29T00:22:37.882Z,18.70
2019-04-29T00:25:07.298Z,21.13
2019-04-29T00:27:36.763Z,16.87
2019-04-29T00:30:09.831Z,19.00
2019-04-29T00:32:39.131Z,23.53
2019-04-29T00:35:09.247Z,20.70
2019-04-29T00:37:42.943Z,24.67
2019-04-29T00:40:30.251Z,21.30
2019-04-29T00:43:10.107Z,24.73
2019-04-29T00:45:39.399Z,21.47
2019-04-29T00:48:08.709Z,24.67
2019-04-29T00:50:38.078Z,20.63
2019-04-29T00:53:10.195Z,18.17
2019-04-29T00:55:39.501Z,20.33
2019-04-29T00:58:08.899Z,23.00
2019-04-29T01:00:42.595Z,23.30
2019-04-29T01:03:11.894Z,19.13
2019-04-29T01:05:41.194Z,18.53
2019-04-29T01:08:13.191Z,20.37
2019-04-29T01:10:44.334Z,23.03
2019-04-29T01:13:13.731Z,18.40
2019-04-29T01:15:43.091Z,20.47
2019-04-29T01:18:12.394Z,21.87
2019-04-29T01:20:41.836Z,23.83
2019-04-29T01:23:11.290Z,24.30
2019-04-29T01:25:42.242Z,27.00
2019-04-29T01:28:13.166Z,22.30
2019-04-29T01:31:01.182Z,20.30
2019-04-29T01:33:30.626Z,20.37
2019-04-29T01:36:17.560Z,20.60
2019-04-29T01:38:48.786Z,19.67
2019-04-29T01:41:19.994Z,23.07
2019-04-29T01:43:58.874Z,18.70
2019-04-29T01:46:29.289Z,18.03
2019-04-29T01:48:58.726Z,19.00
2019-04-29T01:51:28.114Z,22.00
2019-04-29T01:53:57.470Z,21.63
2019-04-29T01:56:27.738Z,19.97
2019-04-29T01:58:57.161Z,21.93
2019-04-29T02:01:26.458Z,21.57
2019-04-29T02:03:55.822Z,18.93
2019-04-29T02:06:25.154Z,21.60
2019-04-29T02:08:56.227Z,20.63
2019-04-29T02:11:25.566Z,16.50
2019-04-29T02:13:57.794Z,23.50
2019-04-29T02:16:27.190Z,19.27
2019-04-29T02:18:56.572Z,20.20
2019-04-29T02:21:25.942Z,18.47
2019-04-29T02:24:08.382Z,17.53
2019-04-29T02:26:37.752Z,19.97
2019-04-29T02:29:07.127Z,18.83
2019-04-29T02:31:41.175Z,20.63
2019-04-29T02:34:10.458Z,21.07
2019-04-29T02:36:39.848Z,18.80
2019-04-29T02:39:13.392Z,20.13
2019-04-29T02:41:47.075Z,19.40
2019-04-29T02:44:16.462Z,18.27
2019-04-29T02:46:47.286Z,19.60
2019-04-29T02:49:19.163Z,18.17
2019-04-29T02:51:54.463Z,18.97
2019-04-29T02:54:25.384Z,19.87
2019-04-29T02:56:58.799Z,20.70
2019-04-29T02:59:32.311Z,20.10
2019-04-29T03:02:03.425Z,21.00
2019-04-29T03:04:52.280Z,18.73
2019-04-29T03:07:23.367Z,19.50
2019-04-29T03:09:52.839Z,18.80
2019-04-29T03:12:22.221Z,19.57
2019-04-29T03:14:54.218Z,17.33
2019-04-29T03:17:23.580Z,20.47
2019-04-29T03:20:09.631Z,20.17
2019-04-29T03:22:40.631Z,21.07
2019-04-29T03:25:10.198Z,21.37
2019-04-29T03:27:39.590Z,20.07
2019-04-29T03:30:09.319Z,19.07
2019-04-29T03:32:38.757Z,16.50
2019-04-29T03:35:11.648Z,18.87
2019-04-29T03:37:43.759Z,16.97
2019-04-29T03:40:14.700Z,18.00
2019-04-29T03:42:44.567Z,18.43
2019-04-29T03:45:13.884Z,19.40
2019-04-29T03:47:43.238Z,16.47
2019-04-29T03:50:15.386Z,15.70
2019-04-29T03:52:44.841Z,18.77
2019-04-29T03:55:14.195Z,17.80
2019-04-29T03:57:43.586Z,18.23
2019-04-29T04:00:14.762Z,18.23
2019-04-29T04:02:48.498Z,19.67
2019-04-29T04:05:34.570Z,21.67
2019-04-29T04:08:12.910Z,17.97
2019-04-29T04:10:42.282Z,15.77
2019-04-29T04:13:14.609Z,18.30
2019-04-29T04:15:43.974Z,17.47
2019-04-29T04:18:17.804Z,19.00
2019-04-29T04:20:48.731Z,18.07
2019-04-29T04:23:18.045Z,22.80
2019-04-29T04:25:47.411Z,22.27
2019-04-29T04:28:16.833Z,19.50
2019-04-29T04:30:46.281Z,22.10
2019-04-29T04:33:18.765Z,22.30
2019-04-29T04:35:48.129Z,21.63
2019-04-29T04:38:17.506Z,21.63
2019-04-29T04:40:57.472Z,20.17
2019-04-29T04:43:26.862Z,22.47
2019-04-29T04:45:56.230Z,22.33
2019-04-29T04:48:25.624Z,19.90
2019-04-29T04:50:55.056Z,20.90
2019-04-29T04:53:24.485Z,21.13
2019-04-29T04:55:55.542Z,22.43
2019-04-29T04:58:24.838Z,23.17
2019-04-29T05:00:54.250Z,28.30
2019-04-29T05:03:23.610Z,31.47
2019-04-29T05:05:52.910Z,34.83
2019-04-29T05:08:23.108Z,46.20
2019-04-29T05:10:56.326Z,43.90
2019-04-29T05:13:28.863Z,51.80
2019-04-29T05:15:58.221Z,61.03
2019-04-29T05:18:27.595Z,33.60
2019-04-29T05:20:56.913Z,31.40
2019-04-29T05:23:26.255Z,39.20
2019-04-29T05:25:55.571Z,39.30
2019-04-29T05:28:24.858Z,30.73
2019-04-29T05:30:56.950Z,34.67
2019-04-29T05:33:26.246Z,36.10
2019-04-29T05:36:01.899Z,34.17
2019-04-29T05:38:33.196Z,49.40
2019-04-29T05:41:02.536Z,56.83
2019-04-29T05:43:39.525Z,34.10
2019-04-29T05:46:17.447Z,27.83
2019-04-29T05:48:47.469Z,25.57
2019-04-29T05:51:30.326Z,26.67
2019-04-29T05:54:01.288Z,29.63
2019-04-29T05:56:30.639Z,26.50
2019-04-29T05:59:00.094Z,25.77
2019-04-29T06:01:31.053Z,22.90
2019-04-29T06:04:02.099Z,24.17
2019-04-29T06:06:32.291Z,22.97
2019-04-29T06:09:11.499Z,25.20
2019-04-29T06:11:38.852Z,35.10
2019-04-29T06:14:09.220Z,28.70
2019-04-29T06:16:38.661Z,30.97
2019-04-29T06:19:07.970Z,27.07
2019-04-29T06:21:37.459Z,29.83
2019-04-29T06:24:09.763Z,24.37
2019-04-29T06:26:39.052Z,26.77
2019-04-29T06:29:08.374Z,24.93
2019-04-29T06:31:37.731Z,22.07
2019-04-29T06:34:07.023Z,23.43
2019-04-29T06:36:36.475Z,22.10
2019-04-29T06:39:06.878Z,23.13
2019-04-29T06:41:36.322Z,26.50
2019-04-29T06:44:11.643Z,24.47
2019-04-29T06:46:36.685Z,26.57
2019-04-29T06:49:10.549Z,28.70
2019-04-29T06:51:37.009Z,26.43
2019-04-29T06:54:06.305Z,25.90
2019-04-29T06:56:35.609Z,23.93
2019-04-29T06:59:07.640Z,26.23
2019-04-29T07:01:37.537Z,26.50
2019-04-29T07:04:07.606Z,23.40
2019-04-29T07:06:39.957Z,25.70
2019-04-29T07:09:09.277Z,27.63
2019-04-29T07:11:38.809Z,29.87
2019-04-29T07:14:08.299Z,37.20
2019-04-29T07:16:37.653Z,43.07
2019-04-29T07:19:06.954Z,51.87
2019-04-29T07:21:36.343Z,34.33
2019-04-29T07:24:05.765Z,35.93
2019-04-29T07:26:35.055Z,31.17
2019-04-29T07:29:04.449Z,34.70
2019-04-29T07:31:36.896Z,32.50
2019-04-29T07:34:08.444Z,32.90
2019-04-29T07:36:37.605Z,31.43
2019-04-29T07:39:08.921Z,30.53
2019-04-29T07:41:38.214Z,33.23
2019-04-29T07:44:07.580Z,35.67
2019-04-29T07:46:55.639Z,34.67
2019-04-29T07:49:12.825Z,36.43
2019-04-29T07:51:40.818Z,39.43
2019-04-29T07:54:11.139Z,36.00
2019-04-29T07:56:42.303Z,35.03
2019-04-29T07:59:12.459Z,37.50
2019-04-29T08:01:41.824Z,32.03
2019-04-29T08:04:11.143Z,36.80
2019-04-29T08:06:43.003Z,32.93
2019-04-29T08:09:11.637Z,31.90
2019-04-29T08:11:41.062Z,33.47
2019-04-29T08:14:11.373Z,33.67
2019-04-29T08:16:40.717Z,35.13
2019-04-29T08:19:10.057Z,34.40
2019-04-29T08:21:39.487Z,31.63
2019-04-29T08:24:11.686Z,33.40
2019-04-29T08:26:47.104Z,33.40
2019-04-29T08:29:10.955Z,33.30
2019-04-29T08:31:40.245Z,30.37
2019-04-29T08:34:09.643Z,29.90
2019-04-29T08:36:38.929Z,29.87
2019-04-29T08:39:09.076Z,26.97
2019-04-29T08:41:38.444Z,25.93
2019-04-29T08:44:21.267Z,27.87
2019-04-29T08:46:52.932Z,28.93
2019-04-29T08:49:22.363Z,24.70
2019-04-29T08:51:51.728Z,24.17
2019-04-29T08:54:21.407Z,25.30
2019-04-29T08:57:02.716Z,21.47
2019-04-29T08:59:24.600Z,24.40
2019-04-29T09:01:54.608Z,24.00
2019-04-29T09:04:28.622Z,24.40
2019-04-29T09:07:11.627Z,26.23
2019-04-29T09:09:29.683Z,25.23
2019-04-29T09:11:59.183Z,18.87
2019-04-29T09:14:28.477Z,16.67
2019-04-29T09:16:57.851Z,13.97
2019-04-29T09:19:27.143Z,14.80
2019-04-29T09:21:58.099Z,15.30
2019-04-29T09:24:27.407Z,15.40
2019-04-29T09:27:09.680Z,15.07
2019-04-29T09:29:39.215Z,18.63
2019-04-29T09:32:09.273Z,17.57
2019-04-29T09:34:38.655Z,18.80
2019-04-29T09:37:10.804Z,18.27
2019-04-29T09:39:43.920Z,21.33
2019-04-29T09:42:30.969Z,20.23
2019-04-29T09:45:24.263Z,15.73
2019-04-29T09:47:51.423Z,14.33
2019-04-29T09:50:20.841Z,16.37
2019-04-29T09:52:50.155Z,14.43
2019-04-29T09:55:21.242Z,16.13
2019-04-29T09:57:53.073Z,16.80
2019-04-29T10:00:29.715Z,13.77
2019-04-29T10:03:03.951Z,9.53
2019-04-29T10:05:38.479Z,11.07
2019-04-29T10:08:07.795Z,12.83
2019-04-29T10:10:38.099Z,14.30
2019-04-29T10:13:08.939Z,11.50
2019-04-29T10:15:55.807Z,11.70
2019-04-29T10:18:29.927Z,13.17
2019-04-29T10:21:10.751Z,11.90
2019-04-29T10:23:40.459Z,11.37
2019-04-29T10:26:09.832Z,12.33
2019-04-29T10:28:46.265Z,12.50
2019-04-29T10:31:16.365Z,12.63
2019-04-29T10:33:45.675Z,13.93
2019-04-29T10:36:15.999Z,13.50
2019-04-29T10:38:48.341Z,12.17
2019-04-29T10:41:22.301Z,12.93
2019-04-29T10:43:55.416Z,11.67
2019-04-29T10:46:40.835Z,8.73
2019-04-29T10:49:11.829Z,9.03
2019-04-29T10:51:41.171Z,9.27
2019-04-29T10:54:14.241Z,9.63
2019-04-29T10:56:43.511Z,10.70
2019-04-29T10:59:12.800Z,10.33
2019-04-29T11:02:13.339Z,9.33
2019-04-29T11:04:38.387Z,9.23
2019-04-29T11:07:28.385Z,11.53
2019-04-29T11:10:07.948Z,10.37
2019-04-29T11:12:36.683Z,10.53
2019-04-29T11:15:09.926Z,7.20
2019-04-29T11:17:39.575Z,6.70
2019-04-29T11:20:16.029Z,6.40
2019-04-29T11:22:48.167Z,8.10
2019-04-29T11:25:36.615Z,6.50
2019-04-29T11:28:06.031Z,8.13
2019-04-29T11:30:39.393Z,8.33
2019-04-29T11:33:14.215Z,8.47
2019-04-29T11:35:45.271Z,9.23
2019-04-29T11:38:19.265Z,10.57
2019-04-29T11:40:50.666Z,10.47
2019-04-29T11:43:22.794Z,9.03
2019-04-29T11:45:52.248Z,9.27
2019-04-29T11:48:21.615Z,8.67
2019-04-29T11:50:58.647Z,8.77
2019-04-29T11:53:27.922Z,4.93
2019-04-29T11:55:58.735Z,5.80
2019-04-29T11:58:47.994Z,8.80
2019-04-29T12:01:39.287Z,12.37
2019-04-29T12:04:09.380Z,7.70
2019-04-29T12:06:40.134Z,7.97
2019-04-29T12:09:09.619Z,7.80
2019-04-29T12:11:39.530Z,9.43
2019-04-29T12:14:13.258Z,8.73
2019-04-29T12:16:56.170Z,8.43
2019-04-29T12:19:27.111Z,7.87
2019-04-29T12:21:56.486Z,8.40
2019-04-29T12:24:25.834Z,7.50
2019-04-29T12:26:55.118Z,8.07
2019-04-29T12:29:24.391Z,6.67
2019-04-29T12:31:58.308Z,9.70
2019-04-29T12:34:33.351Z,7.27
2019-04-29T12:37:04.284Z,8.23
2019-04-29T12:39:51.438Z,7.03
2019-04-29T12:42:40.554Z,9.50
2019-04-29T12:45:19.507Z,7.20
2019-04-29T12:47:46.804Z,6.43
2019-04-29T12:50:17.495Z,6.53
2019-04-29T12:52:47.370Z,7.80
2019-04-29T12:55:24.921Z,7.93
2019-04-29T12:57:51.411Z,7.87
2019-04-29T13:00:22.244Z,8.77
2019-04-29T13:03:05.379Z,9.27
2019-04-29T13:05:39.490Z,7.80
2019-04-29T13:08:26.556Z,6.63
2019-04-29T13:10:57.834Z,6.17
2019-04-29T13:13:27.120Z,6.73
2019-04-29T13:16:14.094Z,6.77
2019-04-29T13:18:48.816Z,10.03
2019-04-29T13:21:17.598Z,6.77
2019-04-29T13:23:59.256Z,8.70
2019-04-29T13:26:27.869Z,8.97
2019-04-29T13:29:00.207Z,7.83
2019-04-29T13:31:37.131Z,9.23
2019-04-29T13:33:57.252Z,6.13
2019-04-29T13:36:27.413Z,7.70
2019-04-29T13:38:58.458Z,5.77
2019-04-29T13:41:27.938Z,6.97
2019-04-29T13:44:03.891Z,6.50
2019-04-29T13:46:31.727Z,7.20
2019-04-29T13:49:12.258Z,6.53
2019-04-29T13:51:36.638Z,7.77
2019-04-29T13:54:06.598Z,7.10
2019-04-29T13:56:54.558Z,7.30
2019-04-29T13:59:11.044Z,7.23
2019-04-29T14:01:58.420Z,7.97
2019-04-29T14:04:24.698Z,7.30
2019-04-29T14:06:57.120Z,8.23
2019-04-29T14:09:22.942Z,7.73
2019-04-29T14:12:01.893Z,7.67
2019-04-29T14:14:24.668Z,8.50
2019-04-29T14:17:11.620Z,8.47
2019-04-29T14:19:40.261Z,8.60
2019-04-29T14:21:56.164Z,9.70
2019-04-29T14:24:25.482Z,8.67
2019-04-29T14:26:54.770Z,8.93
2019-04-29T14:29:28.459Z,9.07
2019-04-29T14:31:59.333Z,8.37
2019-04-29T14:34:30.572Z,8.93
2019-04-29T14:37:18.326Z,9.13
2019-04-29T14:39:37.218Z,8.07
2019-04-29T14:42:04.242Z,8.63
2019-04-29T14:44:37.860Z,8.13
2019-04-29T14:47:14.342Z,8.77
2019-04-29T14:49:48.212Z,8.57
2019-04-29T14:52:17.558Z,8.63
2019-04-29T14:54:46.956Z,9.63
2019-04-29T14:57:16.287Z,11.37
2019-04-29T14:59:45.743Z,9.83
2019-04-29T15:02:19.167Z,9.70
2019-04-29T15:04:48.055Z,9.33
2019-04-29T15:07:17.439Z,10.93
2019-04-29T15:09:58.499Z,11.20
2019-04-29T15:12:31.213Z,10.63
2019-04-29T15:15:04.995Z,11.13
2019-04-29T15:17:36.075Z,16.03
2019-04-29T15:20:09.406Z,11.60
2019-04-29T15:22:43.229Z,10.63
2019-04-29T15:25:16.728Z,13.00
2019-04-29T15:27:46.038Z,9.40
2019-04-29T15:30:17.304Z,8.90
2019-04-29T15:32:46.690Z,9.13
2019-04-29T15:35:19.904Z,10.03
2019-04-29T15:37:47.644Z,9.37
2019-04-29T15:40:20.680Z,10.80
2019-04-29T15:42:51.136Z,10.03
2019-04-29T15:45:19.282Z,9.77
2019-04-29T15:47:48.804Z,10.33
2019-04-29T15:50:19.260Z,10.53
2019-04-29T15:52:48.930Z,11.90
2019-04-29T15:55:18.232Z,9.73
2019-04-29T15:57:50.352Z,10.00
2019-04-29T16:00:21.943Z,9.60
2019-04-29T16:02:49.995Z,9.03
2019-04-29T16:05:59.981Z,9.17
2019-04-29T16:08:14.465Z,10.63
2019-04-29T16:11:02.896Z,12.67
2019-04-29T16:13:33.312Z,10.60
2019-04-29T16:16:02.619Z,10.60
2019-04-29T16:18:33.288Z,10.03
2019-04-29T16:21:03.996Z,10.40
2019-04-29T16:23:38.760Z,10.53
2019-04-29T16:26:10.196Z,10.70
2019-04-29T16:28:40.224Z,13.37
2019-04-29T16:31:12.420Z,12.50
2019-04-29T16:33:47.279Z,9.57
2019-04-29T16:36:15.495Z,11.73
2019-04-29T16:38:46.309Z,12.30
2019-04-29T16:41:33.907Z,12.70
2019-04-29T16:44:07.582Z,12.10
2019-04-29T16:46:37.899Z,12.17
2019-04-29T16:49:10.429Z,13.93
2019-04-29T16:51:47.960Z,12.73
2019-04-29T16:54:20.425Z,12.93
2019-04-29T16:56:44.903Z,14.47
2019-04-29T16:59:14.351Z,15.40
2019-04-29T17:01:43.807Z,14.73
2019-04-29T17:04:15.658Z,15.37
2019-04-29T17:07:10.695Z,15.63
2019-04-29T17:09:33.972Z,14.33
2019-04-29T17:12:03.849Z,15.17
2019-04-29T17:14:33.246Z,17.40
2019-04-29T17:17:04.241Z,16.90
2019-04-29T17:19:36.709Z,17.20
2019-04-29T17:22:25.026Z,16.97
2019-04-29T17:24:37.500Z,17.90
2019-04-29T17:27:08.562Z,15.43
2019-04-29T17:30:03.751Z,14.00
2019-04-29T17:32:48.327Z,14.90
2019-04-29T17:35:21.469Z,15.33
2019-04-29T17:37:48.442Z,16.07
2019-04-29T17:40:19.557Z,15.47
2019-04-29T17:42:50.610Z,17.00
2019-04-29T17:45:30.648Z,16.10
2019-04-29T17:48:18.265Z,16.57
2019-04-29T17:50:53.425Z,18.30
2019-04-29T17:53:27.857Z,20.57
2019-04-29T17:56:05.225Z,19.40
2019-04-29T17:58:51.347Z,21.87
2019-04-29T18:01:24.319Z,21.87
2019-04-29T18:04:01.818Z,22.20
2019-04-29T18:06:32.849Z,20.40
2019-04-29T18:09:18.079Z,22.13
2019-04-29T18:11:51.801Z,23.10
2019-04-29T18:14:18.467Z,23.63
2019-04-29T18:16:47.970Z,22.43
2019-04-29T18:19:25.007Z,21.67
2019-04-29T18:22:12.059Z,20.40
2019-04-29T18:24:48.822Z,22.83
2019-04-29T18:27:19.848Z,18.40
2019-04-29T18:29:49.168Z,19.17
2019-04-29T18:32:18.455Z,18.27
2019-04-29T18:34:49.545Z,16.90
2019-04-29T18:37:21.383Z,16.87
2019-04-29T18:39:50.689Z,19.20
2019-04-29T18:42:19.981Z,18.20
2019-04-29T18:44:57.704Z,15.77
2019-04-29T18:47:22.943Z,15.57
2019-04-29T18:49:54.311Z,16.30
2019-04-29T18:52:26.559Z,13.47
2019-04-29T18:54:54.943Z,14.77
2019-04-29T18:57:28.634Z,13.83
2019-04-29T19:00:06.727Z,12.70
2019-04-29T19:02:32.315Z,13.50
2019-04-29T19:05:12.365Z,13.37
2019-04-29T19:07:52.530Z,16.60
2019-04-29T19:10:14.245Z,15.37
2019-04-29T19:12:46.000Z,17.03
2019-04-29T19:15:17.817Z,13.90
2019-04-29T19:17:58.690Z,13.63
2019-04-29T19:20:18.759Z,12.67
2019-04-29T19:22:48.390Z,12.97
2019-04-29T19:25:17.939Z,13.87
2019-04-29T19:27:47.341Z,15.67
2019-04-29T19:30:21.065Z,15.50
2019-04-29T19:32:54.001Z,12.10
2019-04-29T19:35:21.518Z,12.87
2019-04-29T19:37:51.771Z,13.50
2019-04-29T19:40:21.391Z,11.80
2019-04-29T19:42:50.824Z,12.77
2019-04-29T19:45:20.165Z,13.33
2019-04-29T19:47:53.178Z,13.73
2019-04-29T19:50:22.330Z,12.90
2019-04-29T19:52:51.703Z,12.93
2019-04-29T19:55:21.083Z,10.93
2019-04-29T19:57:53.986Z,11.10
2019-04-29T20:00:29.488Z,12.13
2019-04-29T20:02:57.272Z,10.67
2019-04-29T20:05:39.034Z,12.17
2019-04-29T20:08:07.125Z,12.37
2019-04-29T20:10:42.417Z,12.03
2019-04-29T20:13:07.985Z,11.07
2019-04-29T20:15:42.034Z,13.37
2019-04-29T20:18:13.580Z,13.40
2019-04-29T20:21:08.649Z,14.63
2019-04-29T20:23:36.208Z,11.07
2019-04-29T20:26:15.445Z,11.63
2019-04-29T20:28:37.376Z,11.37
2019-04-29T20:31:18.725Z,10.33
2019-04-29T20:33:42.163Z,12.13
2019-04-29T20:36:10.516Z,12.67
2019-04-29T20:38:39.933Z,14.13
2019-04-29T20:41:13.008Z,12.60
2019-04-29T20:43:40.520Z,11.73
2019-04-29T20:46:10.075Z,11.73
2019-04-29T20:48:39.635Z,11.97
2019-04-29T20:51:13.191Z,11.97
2019-04-29T20:53:45.910Z,13.73
2019-04-29T20:56:24.169Z,12.47
2019-04-29T20:58:48.495Z,12.17
2019-04-29T21:01:20.303Z,11.97
2019-04-29T21:03:55.999Z,12.23
2019-04-29T21:06:23.441Z,12.57
2019-04-29T21:08:52.923Z,12.20
2019-04-29T21:11:25.692Z,14.50
2019-04-29T21:13:57.264Z,11.33
2019-04-29T21:16:30.789Z,14.47
2019-04-29T21:19:01.099Z,15.30
2019-04-29T21:21:30.388Z,15.53
2019-04-29T21:23:59.703Z,15.03
2019-04-29T21:26:29.046Z,16.43
2019-04-29T21:28:58.537Z,15.57
2019-04-29T21:31:28.047Z,16.67
2019-04-29T21:33:59.096Z,16.97
2019-04-29T21:36:46.143Z,16.63
2019-04-29T21:39:17.219Z,17.03
2019-04-29T21:41:50.685Z,17.53
2019-04-29T21:44:19.222Z,15.77
2019-04-29T21:46:48.557Z,16.97
2019-04-29T21:49:17.939Z,16.57
2019-04-29T21:51:49.844Z,15.90
2019-04-29T21:54:18.235Z,17.23
2019-04-29T21:56:48.164Z,16.20
2019-04-29T21:59:21.284Z,17.47
2019-04-29T22:01:50.635Z,14.10
2019-04-29T22:04:19.928Z,15.57
2019-04-29T22:06:49.228Z,17.83
2019-04-29T22:09:18.578Z,18.47
2019-04-29T22:11:48.038Z,21.63
2019-04-29T22:14:17.388Z,18.23
2019-04-29T22:16:47.501Z,14.97
2019-04-29T22:19:17.809Z,18.77
2019-04-29T22:21:47.094Z,20.57
2019-04-29T22:24:16.392Z,19.13
2019-04-29T22:26:45.673Z,23.57
2019-04-29T22:29:15.053Z,18.00
2019-04-29T22:31:45.889Z,17.90
2019-04-29T22:34:19.098Z,17.83
2019-04-29T22:36:48.040Z,17.07
2019-04-29T22:39:17.275Z,18.33
2019-04-29T22:42:04.230Z,20.63
2019-04-29T22:44:33.582Z,21.27
2019-04-29T22:47:03.240Z,18.77
2019-04-29T22:49:32.709Z,18.57
2019-04-29T22:52:02.130Z,20.07
2019-04-29T22:54:31.579Z,21.30
2019-04-29T22:57:01.080Z,22.47
2019-04-29T22:59:30.503Z,20.80
2019-04-29T23:01:59.816Z,22.07
2019-04-29T23:04:29.111Z,23.37
2019-04-29T23:06:58.422Z,21.53
2019-04-29T23:09:27.850Z,21.47
2019-04-29T23:11:57.141Z,26.43
2019-04-29T23:14:26.606Z,20.60
2019-04-29T23:16:55.908Z,21.87
2019-04-29T23:19:25.930Z,21.30
2019-04-29T23:22:15.421Z,20.23
2019-04-29T23:24:57.796Z,21.53
2019-04-29T23:27:27.086Z,20.27
2019-04-29T23:29:56.739Z,22.30
2019-04-29T23:32:26.030Z,24.97
2019-04-29T23:34:57.088Z,23.13
2019-04-29T23:37:27.582Z,22.17
2019-04-29T23:39:57.327Z,23.77
2019-04-29T23:42:29.580Z,23.77
2019-04-29T23:44:58.936Z,24.93
2019-04-29T23:47:28.231Z,22.73
2019-04-29T23:49:57.532Z,26.80
2019-04-29T23:52:27.024Z,24.37
2019-04-29T23:54:56.380Z,26.17
2019-04-29T23:57:45.981Z,22.30
